Time;durP1;ratioP1;P1;durP2;ratioP2;P2;SDS_P1;SDS_P2;PMS_P1;PMS_P2;Temp;Humidity;BMP_temperature;BMP_pressure;BME280_temperature;BME280_humidity;BME280_pressure;Samples;Min_cycle;Max_cycle;Signal;HPM_P1;HPM_P2
2021/01/08 00:01:40;;;;;;;10.03;8.53;;;1.70;99.90;;;;;;5107242;28;20332;-78
2021/01/08 00:04:07;;;;;;;12.13;9.37;;;1.70;99.90;;;;;;5107289;28;20640;-78
2021/01/08 00:06:33;;;;;;;12.23;9.27;;;1.70;99.90;;;;;;5107752;28;20298;-79
2021/01/08 00:09:00;;;;;;;11.80;9.10;;;1.70;99.90;;;;;;5107650;28;20641;-79
2021/01/08 00:11:27;;;;;;;11.47;8.73;;;1.70;99.90;;;;;;5107369;28;20672;-80
2021/01/08 00:13:54;;;;;;;13.30;8.63;;;1.70;99.90;;;;;;5107548;28;20206;-79
2021/01/08 00:16:20;;;;;;;11.73;8.87;;;1.70;99.90;;;;;;5107063;28;20218;-79
2021/01/08 00:18:47;;;;;;;12.33;8.70;;;1.70;99.90;;;;;;5107630;28;20593;-80
2021/01/08 00:21:14;;;;;;;12.07;9.17;;;1.70;99.90;;;;;;5107334;28;20230;-79
2021/01/08 00:23:40;;;;;;;13.30;9.03;;;1.70;99.90;;;;;;5107586;28;20230;-79
2021/01/08 00:26:07;;;;;;;11.53;9.30;;;1.70;99.90;;;;;;5107056;28;20202;-79
2021/01/08 00:28:34;;;;;;;12.87;10.03;;;1.70;99.90;;;;;;5109047;28;20718;-78
2021/01/08 00:31:00;;;;;;;13.03;9.47;;;1.70;99.90;;;;;;5111274;28;20300;-79
2021/01/08 00:33:27;;;;;;;12.37;9.83;;;1.70;99.90;;;;;;5111129;28;20208;-79
2021/01/08 00:35:54;;;;;;;12.00;8.90;;;1.70;99.90;;;;;;5111346;28;20236;-79
2021/01/08 00:38:20;;;;;;;12.40;9.30;;;1.70;99.90;;;;;;5111030;28;20198;-79
2021/01/08 00:40:47;;;;;;;12.03;9.70;;;1.70;99.90;;;;;;5111254;28;20337;-79
2021/01/08 00:43:13;;;;;;;11.30;9.07;;;1.70;99.90;;;;;;5110702;28;20682;-79
2021/01/08 00:45:40;;;;;;;10.90;9.43;;;1.70;99.90;;;;;;5111109;28;20229;-79
2021/01/08 00:48:07;;;;;;;13.43;9.40;;;1.80;99.90;;;;;;5111200;27;20259;-79
2021/01/08 00:50:34;;;;;;;14.00;10.00;;;1.70;99.90;;;;;;5110819;28;20232;-79
2021/01/08 00:53:00;;;;;;;11.07;9.37;;;1.80;99.90;;;;;;5111036;28;20549;-79
2021/01/08 00:55:26;;;;;;;11.43;9.10;;;1.80;99.90;;;;;;5110738;28;20213;-80
2021/01/08 00:57:53;;;;;;;11.93;9.03;;;1.80;99.90;;;;;;5111157;28;20248;-78
2021/01/08 01:00:20;;;;;;;13.67;10.00;;;1.80;99.90;;;;;;5110546;28;20267;-78
2021/01/08 01:02:47;;;;;;;14.03;10.40;;;1.80;99.90;;;;;;5110681;28;20295;-78
2021/01/08 01:05:14;;;;;;;13.37;10.03;;;1.80;99.90;;;;;;5110541;28;20285;-79
2021/01/08 01:07:40;;;;;;;13.37;9.97;;;1.80;99.90;;;;;;5110732;28;20244;-79
2021/01/08 01:10:07;;;;;;;13.77;9.97;;;1.80;99.90;;;;;;5110389;28;20255;-79
2021/01/08 01:12:34;;;;;;;14.43;10.70;;;1.80;99.90;;;;;;5109883;28;20217;-78
2021/01/08 01:15:00;;;;;;;12.17;9.73;;;1.70;99.90;;;;;;5110159;28;20708;-78
2021/01/08 01:17:26;;;;;;;14.93;10.53;;;1.80;99.90;;;;;;5110270;28;20289;-80
2021/01/08 01:19:54;;;;;;;13.60;9.90;;;1.80;99.90;;;;;;5110415;28;20292;-80
2021/01/08 01:22:20;;;;;;;14.33;10.07;;;1.70;99.90;;;;;;5110011;28;20241;-80
2021/01/08 01:24:46;;;;;;;13.83;10.60;;;1.70;99.90;;;;;;5110468;28;20616;-80
2021/01/08 01:27:13;;;;;;;13.67;9.97;;;1.80;99.90;;;;;;5110241;28;20869;-79
2021/01/08 01:29:39;;;;;;;14.97;10.83;;;1.80;99.90;;;;;;5110420;28;20284;-79
2021/01/08 01:32:06;;;;;;;13.07;9.80;;;1.80;99.90;;;;;;5110200;28;20258;-79
2021/01/08 01:34:32;;;;;;;13.87;10.07;;;1.70;99.90;;;;;;5110251;28;20206;-79
2021/01/08 01:36:59;;;;;;;13.17;10.60;;;1.80;99.90;;;;;;5110053;28;20657;-79
2021/01/08 01:39:25;;;;;;;14.57;10.90;;;1.80;99.90;;;;;;5109798;28;20202;-79
2021/01/08 01:41:52;;;;;;;13.90;10.67;;;1.80;99.90;;;;;;5110235;28;20228;-77
2021/01/08 01:44:18;;;;;;;13.50;10.63;;;1.80;99.90;;;;;;5110015;28;20605;-77
2021/01/08 01:46:44;;;;;;;14.33;10.67;;;1.80;99.90;;;;;;5109744;28;20301;-77
2021/01/08 01:49:11;;;;;;;13.97;10.90;;;1.80;99.90;;;;;;5110060;28;20244;-77
2021/01/08 01:51:37;;;;;;;13.50;10.17;;;1.80;99.90;;;;;;5109656;28;20258;-76
2021/01/08 01:54:07;;;;;;;13.73;10.73;;;1.80;99.90;;;;;;5110013;28;20209;-76
2021/01/08 01:56:33;;;;;;;14.63;10.33;;;1.80;99.90;;;;;;5109572;28;20242;-76
2021/01/08 01:59:00;;;;;;;14.60;10.23;;;1.80;99.90;;;;;;5110075;28;20205;-78
2021/01/08 02:01:26;;;;;;;16.47;10.97;;;1.80;99.90;;;;;;5109501;28;20233;-78
2021/01/08 02:03:56;;;;;;;12.53;10.33;;;1.80;99.90;;;;;;5109921;28;20210;-78
2021/01/08 02:06:30;;;;;;;13.60;10.23;;;1.80;99.90;;;;;;5109794;28;20311;-78
2021/01/08 02:09:00;;;;;;;14.83;11.13;;;1.80;99.90;;;;;;5109641;28;20223;-78
2021/01/08 02:11:33;;;;;;;13.83;10.53;;;1.80;99.90;;;;;;5109438;28;20434;-78
2021/01/08 02:14:05;;;;;;;14.13;11.00;;;1.70;99.90;;;;;;5109361;28;20212;-78
2021/01/08 02:16:35;;;;;;;13.80;10.53;;;1.70;99.90;;;;;;5109151;28;20202;-76
2021/01/08 02:19:04;;;;;;;12.53;10.07;;;1.70;99.90;;;;;;5109281;28;20206;-77
2021/01/08 02:21:36;;;;;;;14.37;10.50;;;1.70;99.90;;;;;;5109311;28;20234;-76
2021/01/08 02:24:07;;;;;;;15.40;10.67;;;1.70;99.90;;;;;;5109396;28;20301;-77
2021/01/08 02:26:35;;;;;;;13.73;10.83;;;1.70;99.90;;;;;;5109148;28;20289;-77
2021/01/08 02:29:02;;;;;;;14.93;11.03;;;1.70;99.90;;;;;;5109197;28;20212;-77
2021/01/08 02:31:28;;;;;;;15.33;10.90;;;1.70;99.90;;;;;;5109088;28;20308;-77
2021/01/08 02:33:55;;;;;;;15.07;11.10;;;1.70;99.90;;;;;;5109376;28;20293;-77
2021/01/08 02:36:22;;;;;;;13.67;10.43;;;1.70;99.90;;;;;;5108972;28;20206;-77
2021/01/08 02:38:51;;;;;;;12.67;10.10;;;1.70;99.90;;;;;;5108949;28;20584;-77
2021/01/08 02:41:19;;;;;;;14.73;11.40;;;1.80;99.90;;;;;;5108486;28;20225;-77
2021/01/08 02:43:48;;;;;;;14.93;10.33;;;1.70;99.90;;;;;;5108954;28;20212;-77
2021/01/08 02:46:14;;;;;;;14.00;10.67;;;1.70;99.90;;;;;;5108941;28;20212;-77
2021/01/08 02:48:41;;;;;;;15.83;11.60;;;1.70;99.90;;;;;;5108808;28;20218;-77
2021/01/08 02:51:07;;;;;;;14.50;10.90;;;1.70;99.90;;;;;;5107892;28;20206;-77
2021/01/08 02:53:37;;;;;;;12.77;10.17;;;1.70;99.90;;;;;;5108278;28;20210;-77
2021/01/08 02:56:07;;;;;;;14.37;10.60;;;1.70;99.90;;;;;;5108267;28;20248;-78
2021/01/08 02:58:35;;;;;;;14.07;10.87;;;1.70;99.90;;;;;;5108303;28;20197;-78
2021/01/08 03:01:04;;;;;;;14.70;11.43;;;1.80;99.90;;;;;;5108074;28;20769;-78
2021/01/08 03:03:31;;;;;;;13.50;10.87;;;1.80;99.90;;;;;;5108415;28;20209;-78
2021/01/08 03:06:00;;;;;;;12.77;10.33;;;1.80;99.90;;;;;;5108286;28;20202;-79
2021/01/08 03:08:28;;;;;;;13.40;11.00;;;1.80;99.90;;;;;;5108354;28;20206;-78
2021/01/08 03:10:55;;;;;;;13.63;10.70;;;1.70;99.90;;;;;;5108361;28;20225;-78
2021/01/08 03:13:22;;;;;;;14.53;11.00;;;1.80;99.90;;;;;;5108102;28;20202;-78
2021/01/08 03:15:49;;;;;;;14.17;11.47;;;1.80;99.90;;;;;;5108397;28;20202;-79
2021/01/08 03:18:16;;;;;;;16.00;11.27;;;1.80;99.90;;;;;;5108145;28;20211;-79
2021/01/08 03:20:42;;;;;;;16.20;11.13;;;1.80;99.90;;;;;;5108325;28;20559;-79
2021/01/08 03:23:08;;;;;;;14.10;11.00;;;1.80;99.90;;;;;;5108102;28;20202;-79
2021/01/08 03:25:35;;;;;;;15.03;11.03;;;1.70;99.90;;;;;;5107962;28;20214;-78
2021/01/08 03:28:01;;;;;;;17.13;11.80;;;1.70;99.90;;;;;;5108214;28;20208;-78
2021/01/08 03:30:28;;;;;;;12.70;10.47;;;1.80;99.90;;;;;;5108006;28;20214;-78
2021/01/08 03:32:54;;;;;;;14.47;11.13;;;1.80;99.90;;;;;;5108118;28;20333;-79
2021/01/08 03:35:21;;;;;;;14.93;11.33;;;1.70;99.90;;;;;;5108034;28;20198;-78
2021/01/08 03:37:48;;;;;;;13.87;10.70;;;1.80;99.90;;;;;;5108190;28;20705;-82
2021/01/08 03:40:14;;;;;;;15.07;11.73;;;1.80;99.90;;;;;;5108341;28;20576;-82
2021/01/08 03:42:40;;;;;;;13.13;10.37;;;1.80;99.90;;;;;;5108560;28;20288;-81
2021/01/08 03:45:08;;;;;;;12.97;10.57;;;1.80;99.90;;;;;;5108141;28;20205;-79
2021/01/08 03:47:34;;;;;;;15.83;10.83;;;1.80;99.90;;;;;;5108011;28;20212;-79
2021/01/08 03:50:01;;;;;;;13.90;10.77;;;1.80;99.90;;;;;;5108071;28;20237;-84
2021/01/08 03:52:28;;;;;;;13.73;10.77;;;1.80;99.90;;;;;;5107647;28;20846;-79
2021/01/08 03:54:54;;;;;;;13.37;10.67;;;1.70;99.90;;;;;;5108056;28;20516;-78
2021/01/08 03:57:21;;;;;;;13.00;10.67;;;1.70;99.90;;;;;;5107487;28;20256;-78
2021/01/08 03:59:47;;;;;;;15.43;11.63;;;1.80;99.90;;;;;;5107756;28;20206;-81
2021/01/08 04:02:14;;;;;;;15.20;11.83;;;1.80;99.90;;;;;;5107896;28;20221;-78
2021/01/08 04:04:40;;;;;;;13.87;10.53;;;1.80;99.90;;;;;;5111949;28;20288;-77
2021/01/08 04:07:06;;;;;;;15.13;11.33;;;1.80;99.90;;;;;;5117488;27;20288;-78
2021/01/08 04:09:33;;;;;;;15.03;11.30;;;1.80;99.90;;;;;;5124053;27;20212;-75
2021/01/08 04:12:00;;;;;;;15.50;11.03;;;1.70;99.90;;;;;;5125722;27;20582;-78
2021/01/08 04:14:26;;;;;;;19.77;11.13;;;1.70;99.90;;;;;;5122362;27;20737;-78
2021/01/08 04:16:52;;;;;;;15.60;11.03;;;1.70;99.90;;;;;;5122599;27;20212;-78
2021/01/08 04:19:19;;;;;;;13.50;10.47;;;1.70;99.90;;;;;;5119703;27;20198;-78
2021/01/08 04:21:46;;;;;;;14.77;11.47;;;1.70;99.90;;;;;;5115554;27;20298;-79
2021/01/08 04:24:13;;;;;;;14.07;10.97;;;1.70;99.90;;;;;;5109597;28;20676;-80
2021/01/08 04:26:40;;;;;;;14.40;11.03;;;1.80;99.90;;;;;;5109634;28;20728;-79
2021/01/08 04:29:07;;;;;;;14.90;11.70;;;1.80;99.90;;;;;;5110000;28;20574;-79
2021/01/08 04:31:33;;;;;;;14.37;11.30;;;1.80;99.90;;;;;;5112184;27;20212;-77
2021/01/08 04:34:00;;;;;;;25.80;20.77;;;1.70;99.90;;;;;;5119156;27;20202;-78
2021/01/08 04:36:26;;;;;;;20.00;16.00;;;1.80;99.90;;;;;;5121036;27;20197;-78
2021/01/08 04:38:52;;;;;;;17.13;13.57;;;1.80;99.90;;;;;;5123704;27;20257;-80
2021/01/08 04:41:19;;;;;;;14.43;10.97;;;1.80;99.90;;;;;;5129482;27;20591;-80
2021/01/08 04:43:47;;;;;;;14.30;11.40;;;1.70;99.90;;;;;;5129696;27;20206;-81
2021/01/08 04:46:18;;;;;;;14.00;10.60;;;1.70;99.90;;;;;;5129603;27;20201;-80
2021/01/08 04:48:45;;;;;;;16.87;12.07;;;1.80;99.90;;;;;;5129887;27;20233;-80
2021/01/08 04:51:12;;;;;;;16.73;10.50;;;1.70;99.90;;;;;;5130156;27;20294;-78
2021/01/08 04:53:39;;;;;;;14.73;10.67;;;1.70;99.90;;;;;;5130118;27;20201;-79
2021/01/08 04:56:10;;;;;;;13.83;10.60;;;1.80;99.90;;;;;;5129242;27;20642;-78
2021/01/08 04:58:37;;;;;;;15.43;11.23;;;1.80;99.90;;;;;;5128744;27;20198;-78
2021/01/08 05:01:04;;;;;;;16.97;12.47;;;1.70;99.90;;;;;;5112912;27;20252;-77
2021/01/08 05:03:31;;;;;;;14.67;10.80;;;1.70;99.90;;;;;;5115376;28;20201;-80
2021/01/08 05:05:59;;;;;;;16.00;11.17;;;1.70;99.90;;;;;;5112440;28;20299;-80
2021/01/08 05:08:25;;;;;;;15.60;11.93;;;1.70;99.90;;;;;;5123743;27;20205;-80
2021/01/08 05:10:52;;;;;;;15.60;11.53;;;1.70;99.90;;;;;;5117342;27;20292;-81
2021/01/08 05:13:19;;;;;;;15.70;11.87;;;1.70;99.90;;;;;;5120791;28;20204;-80
2021/01/08 05:15:52;;;;;;;15.63;11.47;;;1.80;99.90;;;;;;5121882;27;20210;-81
2021/01/08 05:18:20;;;;;;;16.47;11.23;;;1.80;99.90;;;;;;5117654;28;20229;-80
2021/01/08 05:20:50;;;;;;;16.47;11.63;;;1.80;99.90;;;;;;5120531;27;20687;-80
2021/01/08 05:23:17;;;;;;;15.93;11.67;;;1.80;99.90;;;;;;5117737;27;20284;-81
2021/01/08 05:25:46;;;;;;;15.60;11.47;;;1.70;99.90;;;;;;5119734;27;20569;-81
2021/01/08 05:28:15;;;;;;;14.43;11.00;;;1.70;99.90;;;;;;5117286;28;20197;-79
2021/01/08 05:30:42;;;;;;;16.23;11.77;;;1.70;99.90;;;;;;5120970;28;20634;-81
2021/01/08 05:33:12;;;;;;;18.10;11.97;;;1.70;99.90;;;;;;5121087;27;20311;-80
2021/01/08 05:35:40;;;;;;;16.30;12.13;;;1.70;99.90;;;;;;5118084;27;20273;-80
2021/01/08 05:38:07;;;;;;;16.83;12.40;;;1.70;99.90;;;;;;5118987;27;20205;-80
2021/01/08 05:40:37;;;;;;;15.03;11.47;;;1.70;99.90;;;;;;5119275;28;20200;-80
2021/01/08 05:43:04;;;;;;;14.80;11.80;;;1.70;99.90;;;;;;5118524;28;20322;-81
2021/01/08 05:45:31;;;;;;;18.03;12.30;;;1.80;99.90;;;;;;5118972;27;20288;-81
2021/01/08 05:47:59;;;;;;;16.03;12.00;;;1.70;99.90;;;;;;5120003;28;20224;-80
2021/01/08 05:50:27;;;;;;;15.67;11.57;;;1.70;99.90;;;;;;5118117;28;20212;-80
2021/01/08 05:53:00;;;;;;;16.00;11.33;;;1.80;99.90;;;;;;5120503;27;20210;-80
2021/01/08 05:55:28;;;;;;;18.33;12.10;;;1.70;99.90;;;;;;5082247;28;745757;-80
2021/01/08 05:57:54;;;;;;;14.53;11.07;;;1.70;99.90;;;;;;5109387;28;20565;-80
2021/01/08 06:00:22;;;;;;;15.90;11.20;;;1.70;99.90;;;;;;5114951;27;20193;-80
2021/01/08 06:02:50;;;;;;;16.50;11.60;;;1.70;99.90;;;;;;5119700;27;20225;-79
2021/01/08 06:05:19;;;;;;;17.13;11.93;;;1.70;99.90;;;;;;5118821;27;20256;-80
2021/01/08 06:07:49;;;;;;;16.63;11.97;;;1.70;99.90;;;;;;5119640;27;20210;-80
2021/01/08 06:10:19;;;;;;;14.43;11.37;;;1.70;99.90;;;;;;5115363;27;20208;-80
2021/01/08 06:12:48;;;;;;;16.87;12.03;;;1.70;99.90;;;;;;5119947;27;20196;-80
2021/01/08 06:15:16;;;;;;;16.60;11.90;;;1.70;99.90;;;;;;5120411;27;20205;-80
2021/01/08 06:17:46;;;;;;;16.83;11.70;;;1.80;99.90;;;;;;5117650;27;20194;-80
2021/01/08 06:20:13;;;;;;;14.63;11.37;;;1.80;99.90;;;;;;5120435;27;20365;-80
2021/01/08 06:22:41;;;;;;;17.00;12.10;;;1.80;99.90;;;;;;5117342;27;20233;-79
2021/01/08 06:25:09;;;;;;;17.33;11.50;;;1.70;99.90;;;;;;5118620;27;20288;-80
2021/01/08 06:27:37;;;;;;;15.53;11.77;;;1.70;99.90;;;;;;5117675;27;20202;-80
2021/01/08 06:30:06;;;;;;;16.10;11.63;;;1.70;99.90;;;;;;5119525;27;20756;-80
2021/01/08 06:32:34;;;;;;;14.50;10.80;;;1.70;99.90;;;;;;5119957;27;20229;-80
2021/01/08 06:35:05;;;;;;;16.33;11.97;;;1.60;99.90;;;;;;5121349;27;20198;-80
2021/01/08 06:37:37;;;;;;;16.03;11.50;;;1.60;99.90;;;;;;5118368;27;20636;-80
2021/01/08 06:40:05;;;;;;;16.87;12.27;;;1.70;99.90;;;;;;5108745;28;20667;-80
2021/01/08 06:42:32;;;;;;;16.10;11.63;;;1.60;99.90;;;;;;5108120;28;20324;-80
2021/01/08 06:44:59;;;;;;;17.00;12.00;;;1.60;99.90;;;;;;5108829;28;20277;-81
2021/01/08 06:47:29;;;;;;;18.90;12.67;;;1.70;99.90;;;;;;5108178;28;20206;-80
2021/01/08 06:49:58;;;;;;;15.37;11.70;;;1.60;99.90;;;;;;5108270;27;20202;-80
2021/01/08 06:52:27;;;;;;;15.57;11.80;;;1.60;99.90;;;;;;5108467;28;20247;-80
2021/01/08 06:54:54;;;;;;;17.23;12.23;;;1.60;99.90;;;;;;5107856;28;20208;-79
2021/01/08 06:57:21;;;;;;;18.30;13.30;;;1.60;99.90;;;;;;5108279;28;20916;-80
2021/01/08 06:59:55;;;;;;;17.33;12.13;;;1.60;99.90;;;;;;5108082;28;20386;-80
2021/01/08 07:02:25;;;;;;;16.47;11.97;;;1.60;99.90;;;;;;5108674;27;20717;-80
2021/01/08 07:04:53;;;;;;;16.77;12.47;;;1.50;99.90;;;;;;5111449;27;20221;-80
2021/01/08 07:07:23;;;;;;;40.70;33.03;;;1.60;99.90;;;;;;5111523;27;20205;-76
2021/01/08 07:09:50;;;;;;;28.70;21.50;;;1.60;99.90;;;;;;5109472;27;20206;-76
2021/01/08 07:12:21;;;;;;;18.30;13.27;;;1.70;99.90;;;;;;5113399;27;20230;-79
2021/01/08 07:14:49;;;;;;;16.43;12.23;;;1.70;99.90;;;;;;5120316;27;20199;-77
2021/01/08 07:17:15;;;;;;;17.50;12.30;;;1.70;99.90;;;;;;5116830;27;20606;-77
2021/01/08 07:19:44;;;;;;;15.73;11.73;;;1.70;99.90;;;;;;5119650;27;20198;-77
2021/01/08 07:22:18;;;;;;;16.73;12.20;;;1.70;99.90;;;;;;5113340;27;20226;-77
2021/01/08 07:24:46;;;;;;;18.37;12.77;;;1.70;99.90;;;;;;5116203;27;20640;-78
2021/01/08 07:27:17;;;;;;;16.50;11.83;;;1.70;99.90;;;;;;5116278;27;20747;-77
2021/01/08 07:29:55;;;;;;;19.37;14.23;;;1.70;99.90;;;;;;5114635;27;20206;-78
2021/01/08 07:32:34;;;;;;;16.17;12.40;;;1.70;99.90;;;;;;5116335;27;20225;-77
2021/01/08 07:35:17;;;;;;;17.60;11.30;;;1.70;99.90;;;;;;5116393;27;20197;-77
2021/01/08 07:38:04;;;;;;;15.20;11.80;;;1.80;99.90;;;;;;5129029;27;20250;-77
2021/01/08 07:40:32;;;;;;;16.43;12.17;;;1.70;99.90;;;;;;5119896;27;20198;-77
2021/01/08 07:43:00;;;;;;;18.97;12.50;;;1.80;99.90;;;;;;5108081;28;20228;-77
2021/01/08 07:45:49;;;;;;;16.63;12.37;;;1.80;99.90;;;;;;5108041;27;20550;-77
2021/01/08 07:48:19;;;;;;;17.00;11.80;;;1.80;99.90;;;;;;5108315;28;20218;-77
2021/01/08 07:51:00;;;;;;;16.93;11.63;;;1.90;99.90;;;;;;5108484;28;20290;-78
2021/01/08 07:53:46;;;;;;;15.13;11.30;;;1.90;99.90;;;;;;5108007;28;20252;-77
2021/01/08 07:56:15;;;;;;;16.33;12.00;;;1.90;99.90;;;;;;5108660;28;20261;-78
2021/01/08 07:58:42;;;;;;;16.43;12.47;;;1.90;99.90;;;;;;5108216;28;20245;-78
2021/01/08 08:01:10;;;;;;;17.53;12.57;;;1.90;99.90;;;;;;5108342;28;20293;-77
2021/01/08 08:03:36;;;;;;;17.63;12.70;;;1.80;99.90;;;;;;5108059;28;20672;-77
2021/01/08 08:06:05;;;;;;;17.83;12.70;;;1.80;99.90;;;;;;5108688;28;20208;-78
2021/01/08 08:08:32;;;;;;;16.67;12.13;;;1.80;99.90;;;;;;5108152;28;20206;-78
2021/01/08 08:11:09;;;;;;;18.93;12.30;;;1.80;99.90;;;;;;5108399;28;20209;-78
2021/01/08 08:13:36;;;;;;;17.23;12.07;;;1.90;99.90;;;;;;5108066;28;20927;-78
2021/01/08 08:16:03;;;;;;;17.60;12.43;;;1.80;99.90;;;;;;5110836;28;20194;-78
2021/01/08 08:18:29;;;;;;;16.43;12.00;;;1.80;99.90;;;;;;5112298;28;20236;-78
2021/01/08 08:21:10;;;;;;;16.00;11.43;;;1.80;99.90;;;;;;5117175;27;20288;-78
2021/01/08 08:23:37;;;;;;;15.97;11.40;;;1.70;99.90;;;;;;5118458;28;20198;-78
2021/01/08 08:26:04;;;;;;;16.77;11.60;;;1.70;99.90;;;;;;5116469;27;20197;-77
2021/01/08 08:28:31;;;;;;;16.80;11.90;;;1.80;99.90;;;;;;5121761;27;20853;-78
2021/01/08 08:30:57;;;;;;;17.90;12.10;;;1.70;99.90;;;;;;5121613;27;20194;-78
2021/01/08 08:33:24;;;;;;;14.97;11.17;;;1.70;99.90;;;;;;5115054;28;20198;-80
2021/01/08 08:35:53;;;;;;;20.33;13.20;;;1.70;99.90;;;;;;5120551;28;20559;-78
2021/01/08 08:38:21;;;;;;;17.43;12.20;;;1.70;99.90;;;;;;5118444;27;20200;-77
2021/01/08 08:40:47;;;;;;;20.17;16.40;;;1.70;99.90;;;;;;5114512;27;20198;-75
2021/01/08 08:43:21;;;;;;;34.60;27.73;;;1.70;99.90;;;;;;5116159;28;20230;-76
2021/01/08 08:45:48;;;;;;;19.53;14.53;;;1.80;99.90;;;;;;5120033;28;20216;-79
2021/01/08 08:48:14;;;;;;;17.90;13.13;;;1.80;99.90;;;;;;5127433;27;20753;-79
2021/01/08 08:50:44;;;;;;;19.47;13.17;;;1.80;99.90;;;;;;5122109;27;20194;-79
2021/01/08 08:53:11;;;;;;;19.40;13.43;;;1.80;99.90;;;;;;5111137;27;20659;-79
2021/01/08 08:55:38;;;;;;;19.03;13.30;;;1.80;99.90;;;;;;5119632;27;20235;-78
2021/01/08 08:58:07;;;;;;;17.63;13.23;;;1.80;99.90;;;;;;5120501;27;20194;-79
2021/01/08 09:00:34;;;;;;;17.80;12.50;;;1.90;99.90;;;;;;5119565;27;20217;-79
2021/01/08 09:03:01;;;;;;;19.87;14.00;;;1.80;99.90;;;;;;5119826;27;20273;-79
2021/01/08 09:05:32;;;;;;;24.70;16.43;;;1.80;99.90;;;;;;5119694;27;20236;-79
2021/01/08 09:08:05;;;;;;;18.97;12.50;;;1.80;99.90;;;;;;5121500;27;20198;-78
2021/01/08 09:10:36;;;;;;;16.70;11.93;;;1.90;99.90;;;;;;5119133;27;20186;-79
2021/01/08 09:13:11;;;;;;;16.53;11.77;;;1.90;99.90;;;;;;5119854;27;20281;-79
2021/01/08 09:15:46;;;;;;;14.83;11.60;;;1.90;99.90;;;;;;5119154;27;20190;-80
2021/01/08 09:18:20;;;;;;;16.57;12.63;;;1.90;99.90;;;;;;5121580;27;20181;-79
2021/01/08 09:20:55;;;;;;;19.10;13.87;;;1.90;99.90;;;;;;5121681;27;20197;-79
2021/01/08 09:23:22;;;;;;;19.70;12.63;;;1.90;99.90;;;;;;5118471;27;20212;-79
2021/01/08 09:25:48;;;;;;;16.87;12.53;;;1.90;99.90;;;;;;5116505;27;20212;-78
2021/01/08 09:28:17;;;;;;;18.93;13.27;;;1.90;99.90;;;;;;5124274;27;20194;-79
2021/01/08 09:30:50;;;;;;;19.33;14.47;;;1.90;99.90;;;;;;5123759;27;20206;-79
2021/01/08 09:33:17;;;;;;;19.17;13.63;;;1.90;99.90;;;;;;5119224;27;20198;-78
2021/01/08 09:35:44;;;;;;;18.63;13.60;;;1.90;99.90;;;;;;5121944;27;20206;-78
2021/01/08 09:38:14;;;;;;;16.30;11.80;;;1.90;99.90;;;;;;5121723;27;20201;-79
2021/01/08 09:40:42;;;;;;;17.27;12.03;;;1.90;99.90;;;;;;5125122;27;20659;-78
2021/01/08 09:43:16;;;;;;;16.60;12.93;;;1.90;99.90;;;;;;5121855;27;20770;-79
2021/01/08 09:45:43;;;;;;;19.37;13.53;;;1.90;99.90;;;;;;5114259;27;20687;-79
2021/01/08 09:48:21;;;;;;;17.53;12.70;;;1.90;99.90;;;;;;5115628;27;20222;-79
2021/01/08 09:50:58;;;;;;;17.70;12.33;;;2.00;99.90;;;;;;5120859;27;20198;-78
2021/01/08 09:53:25;;;;;;;16.70;12.30;;;2.00;99.90;;;;;;5123521;27;20930;-78
2021/01/08 09:55:51;;;;;;;18.13;13.07;;;2.00;99.90;;;;;;5117296;27;20247;-79
2021/01/08 09:58:18;;;;;;;20.00;12.50;;;2.00;99.90;;;;;;5111304;27;20194;-80
2021/01/08 10:00:50;;;;;;;16.83;12.83;;;2.00;99.90;;;;;;5121220;27;20197;-79
2021/01/08 10:03:20;;;;;;;16.33;12.10;;;2.00;99.90;;;;;;5119985;27;20258;-79
2021/01/08 10:05:47;;;;;;;17.60;12.77;;;1.90;99.90;;;;;;5120366;27;20572;-79
2021/01/08 10:08:21;;;;;;;19.90;13.27;;;1.90;99.90;;;;;;5121729;27;20200;-79
2021/01/08 10:10:48;;;;;;;19.50;13.47;;;1.90;99.90;;;;;;5118356;27;20707;-79
2021/01/08 10:13:20;;;;;;;19.37;13.20;;;2.00;99.90;;;;;;5117493;27;20280;-79
2021/01/08 10:15:48;;;;;;;17.77;12.87;;;2.00;99.90;;;;;;5121310;27;20653;-79
2021/01/08 10:18:16;;;;;;;18.47;12.23;;;2.00;99.90;;;;;;5115168;27;20948;-79
2021/01/08 10:20:45;;;;;;;16.80;12.80;;;2.00;99.90;;;;;;5120858;27;20198;-79
2021/01/08 10:23:13;;;;;;;18.33;13.00;;;2.00;99.90;;;;;;5123771;27;20287;-79
2021/01/08 10:25:40;;;;;;;19.73;13.43;;;2.00;99.90;;;;;;5118746;27;20212;-79
2021/01/08 10:28:12;;;;;;;18.80;12.67;;;2.00;99.90;;;;;;5110375;27;20255;-79
2021/01/08 10:30:40;;;;;;;18.43;12.43;;;1.90;99.90;;;;;;5108765;28;20637;-79
2021/01/08 10:33:07;;;;;;;20.60;13.43;;;1.90;99.90;;;;;;5109441;28;20214;-79
2021/01/08 10:35:34;;;;;;;18.87;13.10;;;2.00;99.90;;;;;;5109813;28;20289;-79
2021/01/08 10:38:00;;;;;;;18.37;13.23;;;2.00;99.90;;;;;;5109954;28;20244;-79
2021/01/08 10:40:27;;;;;;;17.47;12.43;;;2.00;99.90;;;;;;5109297;28;20241;-79
2021/01/08 10:42:53;;;;;;;17.50;13.47;;;2.00;99.90;;;;;;5109714;28;20250;-79
2021/01/08 10:45:20;;;;;;;19.07;13.13;;;2.00;99.90;;;;;;5109548;28;20296;-79
2021/01/08 10:47:47;;;;;;;19.50;13.67;;;2.10;99.90;;;;;;5109378;28;20272;-79
2021/01/08 10:50:14;;;;;;;19.10;13.57;;;2.10;99.90;;;;;;5109533;28;20720;-79
2021/01/08 10:52:43;;;;;;;18.73;13.67;;;2.00;99.90;;;;;;5109397;28;20255;-79
2021/01/08 10:55:10;;;;;;;17.97;12.53;;;2.00;99.90;;;;;;5108791;28;20765;-79
2021/01/08 10:57:37;;;;;;;18.53;13.30;;;2.00;99.90;;;;;;5111596;27;20248;-79
2021/01/08 11:00:06;;;;;;;18.27;12.77;;;2.00;99.90;;;;;;5114428;27;20247;-79
2021/01/08 11:02:32;;;;;;;17.00;12.87;;;2.10;99.90;;;;;;5126122;27;20224;-80
2021/01/08 11:05:00;;;;;;;20.73;13.40;;;2.00;99.90;;;;;;5111333;27;20325;-79
2021/01/08 11:07:26;;;;;;;17.60;12.63;;;2.00;99.90;;;;;;5112516;27;20236;-78
2021/01/08 11:09:52;;;;;;;16.90;12.23;;;2.00;99.90;;;;;;5119526;27;20206;-79
2021/01/08 11:12:19;;;;;;;17.37;12.40;;;2.10;99.90;;;;;;5116337;27;20269;-79
2021/01/08 11:14:45;;;;;;;16.83;12.40;;;2.10;99.90;;;;;;5117853;27;20237;-79
2021/01/08 11:17:11;;;;;;;17.87;12.60;;;2.10;99.90;;;;;;5119768;27;20653;-79
2021/01/08 11:19:38;;;;;;;17.47;12.60;;;2.10;99.90;;;;;;5122710;27;20608;-80
2021/01/08 11:22:05;;;;;;;16.67;11.57;;;2.10;99.90;;;;;;5121736;27;20222;-79
2021/01/08 11:24:31;;;;;;;15.40;11.40;;;2.10;99.90;;;;;;5119023;27;20198;-79
2021/01/08 11:26:58;;;;;;;17.50;13.00;;;2.10;99.90;;;;;;5114049;27;20198;-79
2021/01/08 11:29:24;;;;;;;15.73;11.87;;;2.10;99.90;;;;;;5117540;27;20243;-75
2021/01/08 11:31:50;;;;;;;20.37;15.33;;;2.10;99.90;;;;;;5117929;27;20202;-78
2021/01/08 11:34:17;;;;;;;18.07;13.73;;;2.10;99.90;;;;;;5119821;27;20197;-77
2021/01/08 11:36:45;;;;;;;16.13;11.43;;;2.20;99.90;;;;;;5118236;27;21078;-82
2021/01/08 11:39:14;;;;;;;16.27;11.97;;;2.20;99.90;;;;;;5119140;27;20284;-81
2021/01/08 11:41:40;;;;;;;16.97;11.67;;;2.20;99.90;;;;;;5111082;27;20209;-82
2021/01/08 11:44:07;;;;;;;14.67;11.60;;;2.20;99.90;;;;;;5118402;27;20280;-82
2021/01/08 11:46:34;;;;;;;17.40;12.33;;;2.20;99.90;;;;;;5116483;27;20667;-82
2021/01/08 11:49:00;;;;;;;15.83;12.17;;;2.20;99.90;;;;;;5119818;27;20834;-82
2021/01/08 11:51:26;;;;;;;14.50;10.57;;;2.20;99.90;;;;;;5118220;27;20732;-83
2021/01/08 11:53:52;;;;;;;15.13;11.00;;;2.20;99.90;;;;;;5119243;28;20241;-83
2021/01/08 11:56:28;;;;;;;13.10;9.63;;;2.30;99.90;;;;;;5121125;28;20309;-82
2021/01/08 11:58:54;;;;;;;13.37;10.03;;;2.30;99.90;;;;;;5119458;27;20196;-82
2021/01/08 12:01:24;;;;;;;13.00;10.67;;;2.20;99.90;;;;;;5123785;28;20379;-82
2021/01/08 12:03:50;;;;;;;12.80;9.60;;;2.20;99.90;;;;;;5118600;28;20212;-82
2021/01/08 12:06:17;;;;;;;13.60;10.40;;;2.10;99.90;;;;;;5118526;28;20197;-82
2021/01/08 12:08:43;;;;;;;13.07;10.27;;;2.10;99.90;;;;;;5116961;28;20301;-82
2021/01/08 12:11:14;;;;;;;14.43;10.67;;;2.10;99.90;;;;;;5118320;27;20727;-82
2021/01/08 12:13:43;;;;;;;11.83;9.47;;;2.00;99.90;;;;;;5114101;27;20228;-82
2021/01/08 12:16:09;;;;;;;12.83;10.37;;;2.00;99.90;;;;;;5119484;27;20204;-81
2021/01/08 12:18:36;;;;;;;15.73;10.43;;;2.10;99.90;;;;;;5116822;27;20212;-81
2021/01/08 12:21:05;;;;;;;13.23;10.23;;;2.10;99.90;;;;;;5110127;28;20280;-81
2021/01/08 12:23:31;;;;;;;14.97;10.53;;;2.10;99.90;;;;;;5111955;28;20222;-81
2021/01/08 12:25:58;;;;;;;14.80;10.67;;;2.10;99.90;;;;;;5110726;28;20209;-84
2021/01/08 12:28:24;;;;;;;15.37;11.57;;;2.00;99.90;;;;;;5111193;28;20305;-82
2021/01/08 12:30:51;;;;;;;13.63;10.60;;;2.10;99.90;;;;;;5111658;28;20242;-82
2021/01/08 12:33:18;;;;;;;14.70;10.37;;;2.10;99.90;;;;;;5111302;28;20692;-81
2021/01/08 12:35:44;;;;;;;15.57;10.63;;;2.20;99.90;;;;;;5111701;28;20709;-81
2021/01/08 12:38:10;;;;;;;15.10;10.13;;;2.10;99.90;;;;;;5111770;28;20677;-81
2021/01/08 12:40:37;;;;;;;13.03;9.67;;;2.10;99.90;;;;;;5111293;28;20210;-81
2021/01/08 12:43:03;;;;;;;13.60;10.63;;;2.10;99.90;;;;;;5111392;28;20230;-81